createdAt,value
2023-04-08T00:01:48.537Z,6.34
2023-04-08T00:04:17.025Z,6.35
2023-04-08T00:06:45.615Z,6.35
2023-04-08T00:09:13.938Z,6.36
2023-04-08T00:11:42.658Z,6.37
2023-04-08T00:14:11.076Z,6.37
2023-04-08T00:16:39.473Z,6.36
2023-04-08T00:19:07.822Z,6.34
2023-04-08T00:21:36.205Z,6.33
2023-04-08T00:24:05.035Z,6.31
2023-04-08T00:26:33.362Z,6.30
2023-04-08T00:29:01.697Z,6.30
2023-04-08T00:31:30.511Z,6.30
2023-04-08T00:33:59.046Z,6.30
2023-04-08T00:36:27.752Z,6.31
2023-04-08T00:38:56.647Z,6.31
2023-04-08T00:41:24.992Z,6.33
2023-04-08T00:43:54.927Z,6.34
2023-04-08T00:46:23.481Z,6.36
2023-04-08T00:48:52.143Z,6.36
2023-04-08T00:51:21.327Z,6.37
2023-04-08T00:53:49.694Z,6.37
2023-04-08T00:56:18.011Z,6.38
2023-04-08T00:58:46.379Z,6.39
2023-04-08T01:01:35.107Z,6.42
2023-04-08T01:04:37.509Z,6.44
2023-04-08T01:07:18.989Z,6.45
2023-04-08T01:09:54.383Z,6.45
2023-04-08T01:12:29.034Z,6.45
2023-04-08T01:15:07.858Z,6.47
2023-04-08T01:17:38.197Z,6.49
2023-04-08T01:20:08.829Z,6.50
2023-04-08T01:23:00.901Z,6.50
2023-04-08T01:25:35.708Z,6.50
2023-04-08T01:28:13.277Z,6.50
2023-04-08T01:30:43.708Z,6.49
2023-04-08T01:33:15.432Z,6.48
2023-04-08T01:35:45.951Z,6.47
2023-04-08T01:38:18.525Z,6.45
2023-04-08T01:40:47.967Z,6.41
2023-04-08T01:43:19.129Z,6.36
2023-04-08T01:45:50.500Z,6.30
2023-04-08T01:48:19.034Z,6.23
2023-04-08T01:50:48.012Z,6.18
2023-04-08T01:53:16.402Z,6.13
2023-04-08T01:55:46.057Z,6.09
2023-04-08T01:58:21.379Z,6.04
2023-04-08T02:00:51.744Z,6.01
2023-04-08T02:03:24.401Z,5.96
2023-04-08T02:05:53.035Z,5.93
2023-04-08T02:08:21.393Z,5.89
2023-04-08T02:10:49.816Z,5.86
2023-04-08T02:13:18.294Z,5.83
2023-04-08T02:15:54.113Z,5.81
2023-04-08T02:18:28.258Z,5.78
2023-04-08T02:21:14.466Z,5.76
2023-04-08T02:23:49.208Z,5.73
2023-04-08T02:26:19.366Z,5.71
2023-04-08T02:28:50.242Z,5.69
2023-04-08T02:31:20.679Z,5.66
2023-04-08T02:33:51.514Z,5.63
2023-04-08T02:36:20.696Z,5.62
2023-04-08T02:38:50.483Z,5.60
2023-04-08T02:41:18.974Z,5.59
2023-04-08T02:43:48.046Z,5.58
2023-04-08T02:46:16.697Z,5.56
2023-04-08T02:48:45.288Z,5.55
2023-04-08T02:51:13.626Z,5.52
2023-04-08T02:53:41.932Z,5.53
2023-04-08T02:56:11.596Z,5.53
2023-04-08T02:58:42.590Z,5.53
2023-04-08T03:01:11.419Z,5.53
2023-04-08T03:03:40.599Z,5.52
2023-04-08T03:06:09.182Z,5.53
2023-04-08T03:08:37.664Z,5.50
2023-04-08T03:11:06.093Z,5.50
2023-04-08T03:13:35.565Z,5.49
2023-04-08T03:16:04.167Z,5.47
2023-04-08T03:18:33.865Z,5.46
2023-04-08T03:21:03.365Z,5.43
2023-04-08T03:23:31.723Z,5.42
2023-04-08T03:26:00.203Z,5.42
2023-04-08T03:28:28.561Z,5.39
2023-04-08T03:30:57.060Z,5.37
2023-04-08T03:33:25.394Z,5.34
2023-04-08T03:35:55.112Z,5.31
2023-04-08T03:38:23.561Z,5.29
2023-04-08T03:40:51.921Z,5.29
2023-04-08T03:43:21.977Z,5.28
2023-04-08T03:45:50.443Z,5.28
2023-04-08T03:48:18.903Z,5.27
2023-04-08T03:50:47.512Z,5.26
2023-04-08T03:53:16.348Z,5.27
2023-04-08T03:55:44.895Z,5.27
2023-04-08T03:58:13.499Z,5.27
2023-04-08T04:00:42.369Z,5.24
2023-04-08T04:03:13.142Z,5.23
2023-04-08T04:05:41.726Z,5.25
2023-04-08T04:08:10.108Z,5.24
2023-04-08T04:12:28.494Z,5.25
2023-04-08T04:14:56.977Z,5.23
2023-04-08T04:17:25.795Z,5.22
2023-04-08T04:19:54.337Z,5.20
2023-04-08T04:22:22.899Z,5.19
2023-04-08T04:24:51.351Z,5.18
2023-04-08T04:27:19.756Z,5.16
2023-04-08T04:29:48.393Z,5.15
2023-04-08T04:32:17.120Z,5.13
2023-04-08T04:34:45.750Z,5.12
2023-04-08T04:37:14.089Z,5.10
2023-04-08T04:39:42.443Z,5.09
2023-04-08T04:42:11.456Z,5.08
2023-04-08T04:44:39.923Z,5.07
2023-04-08T04:47:09.975Z,5.07
2023-04-08T04:49:40.398Z,5.07
2023-04-08T04:52:09.249Z,5.07
2023-04-08T04:54:37.731Z,5.08
2023-04-08T04:57:06.533Z,5.08
2023-04-08T04:59:35.110Z,5.09
2023-04-08T05:02:03.912Z,5.08
2023-04-08T05:04:33.409Z,5.10
2023-04-08T05:07:02.166Z,5.10
2023-04-08T05:09:30.860Z,5.10
2023-04-08T05:11:59.253Z,5.10
2023-04-08T05:14:30.878Z,5.10
2023-04-08T05:16:59.371Z,5.10
2023-04-08T05:19:27.909Z,5.10
2023-04-08T05:21:56.351Z,5.07
2023-04-08T05:24:24.742Z,5.06
2023-04-08T05:26:53.510Z,5.03
2023-04-08T05:29:22.145Z,5.03
2023-04-08T05:31:51.708Z,5.04
2023-04-08T05:34:23.202Z,5.05
2023-04-08T05:36:52.464Z,5.06
2023-04-08T05:39:21.460Z,5.06
2023-04-08T05:41:49.905Z,5.07
2023-04-08T05:44:18.754Z,5.07
2023-04-08T05:46:47.252Z,5.06
2023-04-08T05:49:17.360Z,5.07
2023-04-08T05:51:46.050Z,5.08
2023-04-08T05:54:14.377Z,5.11
2023-04-08T05:56:42.904Z,5.13
2023-04-08T05:59:11.374Z,5.15
2023-04-08T06:01:39.996Z,5.17
2023-04-08T06:04:08.719Z,5.17
2023-04-08T06:06:40.735Z,5.20
2023-04-08T06:09:10.209Z,5.21
2023-04-08T06:11:38.534Z,5.22
2023-04-08T06:14:06.933Z,5.23
2023-04-08T06:16:35.582Z,5.25
2023-04-08T06:19:04.011Z,5.28
2023-04-08T06:21:32.484Z,5.33
2023-04-08T06:24:00.896Z,5.38
2023-04-08T06:26:29.383Z,5.47
2023-04-08T06:28:57.817Z,5.57
2023-04-08T06:31:26.743Z,5.65
2023-04-08T06:33:56.203Z,5.74
2023-04-08T06:36:25.739Z,5.81
2023-04-08T06:38:54.258Z,5.89
2023-04-08T06:41:22.907Z,5.95
2023-04-08T06:43:51.259Z,6.02
2023-04-08T06:46:19.750Z,6.11
2023-04-08T06:48:48.372Z,6.20
2023-04-08T06:51:16.905Z,6.30
2023-04-08T06:53:45.339Z,6.37
2023-04-08T06:56:13.774Z,6.45
2023-04-08T06:58:42.164Z,6.52
2023-04-08T07:01:11.272Z,6.60
2023-04-08T07:03:39.847Z,6.69
2023-04-08T07:06:08.286Z,6.78
2023-04-08T07:08:37.543Z,6.85
2023-04-08T07:11:06.710Z,6.91
2023-04-08T07:13:35.183Z,6.93
2023-04-08T07:16:03.991Z,6.97
2023-04-08T07:18:32.993Z,7.02
2023-04-08T07:21:01.881Z,7.09
2023-04-08T07:23:30.665Z,7.18
2023-04-08T07:26:04.863Z,7.24
2023-04-08T07:28:33.339Z,7.33
2023-04-08T07:31:16.375Z,7.41
2023-04-08T07:33:46.289Z,7.49
2023-04-08T07:36:15.785Z,7.55
2023-04-08T07:38:45.058Z,7.64
2023-04-08T07:41:13.927Z,7.73
2023-04-08T07:43:42.368Z,7.81
2023-04-08T07:46:11.466Z,7.90
2023-04-08T07:48:39.934Z,7.99
2023-04-08T07:51:11.471Z,8.07
2023-04-08T07:53:40.781Z,8.11
2023-04-08T07:56:14.311Z,8.13
2023-04-08T07:58:43.339Z,8.16
2023-04-08T08:01:36.034Z,8.23
2023-04-08T08:04:06.376Z,8.31
2023-04-08T08:06:36.612Z,8.39
2023-04-08T08:09:06.068Z,8.44
2023-04-08T08:11:36.142Z,8.51
2023-04-08T08:14:06.107Z,8.58
2023-04-08T08:16:36.713Z,8.65
2023-04-08T08:19:07.543Z,8.76
2023-04-08T08:21:39.650Z,8.84
2023-04-08T08:24:08.198Z,8.93
2023-04-08T08:26:37.390Z,8.98
2023-04-08T08:29:08.589Z,9.00
2023-04-08T08:31:37.334Z,8.99
2023-04-08T08:34:05.934Z,8.96
2023-04-08T08:36:34.913Z,8.91
2023-04-08T08:39:03.520Z,8.94
2023-04-08T08:41:38.331Z,9.02
2023-04-08T08:44:08.781Z,9.08
2023-04-08T08:46:37.638Z,9.16
2023-04-08T08:49:06.625Z,9.18
2023-04-08T08:51:36.143Z,9.24
2023-04-08T08:54:04.836Z,9.31
2023-04-08T08:56:34.476Z,9.38
2023-04-08T08:59:03.272Z,9.45
2023-04-08T09:01:38.386Z,9.53
2023-04-08T09:04:11.173Z,9.64
2023-04-08T09:06:41.429Z,9.69
2023-04-08T09:09:10.821Z,9.74
2023-04-08T09:11:46.092Z,9.81
2023-04-08T09:14:32.978Z,9.90
2023-04-08T09:17:02.146Z,9.98
2023-04-08T09:19:30.537Z,10.05
2023-04-08T09:22:11.487Z,10.08
2023-04-08T09:24:40.775Z,10.17
2023-04-08T09:27:09.200Z,10.31
2023-04-08T09:29:39.831Z,10.51
2023-04-08T09:32:08.537Z,10.71
2023-04-08T09:34:44.421Z,10.86
2023-04-08T09:37:12.820Z,11.00
2023-04-08T09:39:41.708Z,11.08
2023-04-08T09:42:14.783Z,11.14
2023-04-08T09:44:47.260Z,11.20
2023-04-08T09:47:25.968Z,11.24
2023-04-08T09:50:04.099Z,11.36
2023-04-08T09:52:51.634Z,11.43
2023-04-08T09:55:23.886Z,11.57
2023-04-08T09:58:04.315Z,11.79
2023-04-08T10:00:41.291Z,12.01
2023-04-08T10:03:21.957Z,12.25
2023-04-08T10:05:53.516Z,12.38
2023-04-08T10:08:23.341Z,12.51
2023-04-08T10:10:52.152Z,12.59
2023-04-08T10:13:21.424Z,12.58
2023-04-08T10:15:51.103Z,12.55
2023-04-08T10:18:29.078Z,12.54
2023-04-08T10:20:58.147Z,12.56
2023-04-08T10:23:59.461Z,12.75
2023-04-08T10:26:45.679Z,13.10
2023-04-08T10:29:18.102Z,13.41
2023-04-08T10:31:48.142Z,13.59
2023-04-08T10:34:22.991Z,13.79
2023-04-08T10:36:52.233Z,14.23
2023-04-08T10:39:21.930Z,14.68
2023-04-08T10:41:54.351Z,15.13
2023-04-08T10:44:26.696Z,15.39
2023-04-08T10:46:55.920Z,15.78
2023-04-08T10:49:33.570Z,16.00
2023-04-08T10:52:08.589Z,16.33
2023-04-08T10:54:38.473Z,16.64
2023-04-08T10:57:07.041Z,16.96
2023-04-08T10:59:36.966Z,17.03
2023-04-08T11:02:05.643Z,17.08
2023-04-08T11:04:34.325Z,17.09
2023-04-08T11:07:05.727Z,17.04
2023-04-08T11:09:37.620Z,17.00
2023-04-08T11:12:06.173Z,17.03
2023-04-08T11:14:35.529Z,17.30
2023-04-08T11:17:06.238Z,17.71
2023-04-08T11:19:37.010Z,18.18
2023-04-08T11:22:05.923Z,18.75
2023-04-08T11:24:34.445Z,19.34
2023-04-08T11:27:08.503Z,19.90
2023-04-08T11:29:38.239Z,20.38
2023-04-08T11:32:09.021Z,20.75
2023-04-08T11:34:40.570Z,20.80
2023-04-08T11:37:09.012Z,20.81
2023-04-08T11:39:44.636Z,20.81
2023-04-08T11:42:30.483Z,20.76
2023-04-08T11:57:54.941Z,20.71
2023-04-08T12:00:24.337Z,20.47
2023-04-08T12:02:53.252Z,20.22
2023-04-08T12:05:22.089Z,19.98
2023-04-08T12:07:50.809Z,19.74
2023-04-08T12:10:19.237Z,19.49
2023-04-08T12:12:47.771Z,19.20
2023-04-08T12:15:16.070Z,18.90
2023-04-08T12:17:45.424Z,18.67
2023-04-08T12:20:14.135Z,18.41
2023-04-08T12:22:42.967Z,18.18
2023-04-08T12:25:11.301Z,18.01
2023-04-08T12:27:39.816Z,17.94
2023-04-08T12:30:09.648Z,18.15
2023-04-08T12:32:38.045Z,18.26
2023-04-08T12:35:06.920Z,18.45
2023-04-08T12:37:35.889Z,19.00
2023-04-08T12:40:04.882Z,19.38
2023-04-08T12:42:33.337Z,19.57
2023-04-08T12:45:01.674Z,19.83
2023-04-08T12:47:30.475Z,20.27
2023-04-08T12:49:58.878Z,20.77
2023-04-08T12:52:27.456Z,21.24
2023-04-08T12:54:56.060Z,21.57
2023-04-08T12:57:24.439Z,21.65
2023-04-08T12:59:53.574Z,21.74
2023-04-08T13:02:22.137Z,22.12
2023-04-08T13:04:52.338Z,22.46
2023-04-08T13:07:20.791Z,22.93
2023-04-08T13:09:49.178Z,23.51
2023-04-08T13:12:17.485Z,24.03
2023-04-08T13:14:46.497Z,24.46
2023-04-08T13:17:15.106Z,24.43
2023-04-08T13:19:43.528Z,24.46
2023-04-08T13:22:11.885Z,24.76
2023-04-08T13:24:40.207Z,24.94
2023-04-08T13:27:08.588Z,25.10
2023-04-08T13:29:36.965Z,25.30
2023-04-08T13:32:05.709Z,25.73
2023-04-08T13:34:34.141Z,26.13
2023-04-08T13:37:03.218Z,26.42
2023-04-08T13:39:31.924Z,26.25
2023-04-08T13:42:00.319Z,26.28
2023-04-08T13:44:31.082Z,26.27
2023-04-08T13:47:00.146Z,25.96
2023-04-08T13:49:28.671Z,25.70
2023-04-08T13:51:57.010Z,25.36
2023-04-08T13:54:25.910Z,24.90
2023-04-08T13:56:54.296Z,24.37
2023-04-08T13:59:23.177Z,23.80
2023-04-08T14:01:54.281Z,23.31
2023-04-08T14:04:23.995Z,22.83
2023-04-08T14:06:53.424Z,22.32
2023-04-08T14:09:21.876Z,21.92
2023-04-08T14:11:50.646Z,21.62
2023-04-08T14:14:19.194Z,21.36
2023-04-08T14:16:47.725Z,21.08
2023-04-08T14:19:16.678Z,20.99
2023-04-08T14:21:45.237Z,21.08
2023-04-08T14:24:13.772Z,21.02
2023-04-08T14:26:42.212Z,20.91
2023-04-08T14:29:11.079Z,20.81
2023-04-08T14:31:39.467Z,20.82
2023-04-08T14:34:07.911Z,20.84
2023-04-08T14:36:36.287Z,20.78
2023-04-08T14:39:04.657Z,20.61
2023-04-08T14:41:33.371Z,20.35
2023-04-08T14:44:01.933Z,20.10
2023-04-08T14:46:30.699Z,19.89
2023-04-08T14:48:59.268Z,19.70
2023-04-08T14:51:27.586Z,19.55
2023-04-08T14:53:56.158Z,19.46
2023-04-08T14:56:24.592Z,19.34
2023-04-08T14:58:53.222Z,19.25
2023-04-08T15:01:21.867Z,19.12
2023-04-08T15:03:50.439Z,18.97
2023-04-08T15:15:05.495Z,18.05
2023-04-08T15:17:33.992Z,17.73
2023-04-08T15:20:02.427Z,17.43
2023-04-08T15:22:30.863Z,17.18
2023-04-08T15:24:59.309Z,16.94
2023-04-08T15:27:27.832Z,16.66
2023-04-08T15:29:56.163Z,16.41
2023-04-08T15:32:24.690Z,16.18
2023-04-08T15:34:53.310Z,15.93
2023-04-08T15:37:23.143Z,15.68
2023-04-08T15:39:53.889Z,15.50
2023-04-08T15:42:22.670Z,15.37
2023-04-08T15:44:51.060Z,15.26
2023-04-08T15:47:19.503Z,15.20
2023-04-08T15:49:48.856Z,15.16
2023-04-08T15:52:17.734Z,15.15
2023-04-08T15:54:46.377Z,15.23
2023-04-08T15:57:16.231Z,15.30
2023-04-08T15:59:44.884Z,15.33
2023-04-08T16:02:13.345Z,15.33
2023-04-08T16:04:42.847Z,15.32
2023-04-08T16:07:11.531Z,15.26
2023-04-08T16:09:39.950Z,15.18
2023-04-08T16:12:08.621Z,15.10
2023-04-08T16:14:37.110Z,15.02
2023-04-08T16:17:06.374Z,14.93
2023-04-08T16:19:34.768Z,14.82
2023-04-08T16:22:03.265Z,14.71
2023-04-08T16:24:36.059Z,14.59
2023-04-08T16:27:04.668Z,14.48
2023-04-08T16:29:33.208Z,14.39
2023-04-08T16:32:02.049Z,14.28
2023-04-08T16:34:30.568Z,14.19
2023-04-08T16:36:58.950Z,14.07
2023-04-08T16:39:28.092Z,13.97
2023-04-08T16:41:56.459Z,13.88
2023-04-08T16:44:25.988Z,13.80
2023-04-08T16:46:54.301Z,13.70
2023-04-08T16:49:22.986Z,13.62
2023-04-08T16:51:51.695Z,13.53
2023-04-08T16:54:20.034Z,13.44
2023-04-08T16:56:48.344Z,13.33
2023-04-08T16:59:16.798Z,13.24
2023-04-08T17:01:45.213Z,13.18
2023-04-08T17:04:13.589Z,13.11
2023-04-08T17:06:42.307Z,13.03
2023-04-08T17:09:10.994Z,12.97
2023-04-08T17:11:39.382Z,12.91
2023-04-08T17:14:08.107Z,12.83
2023-04-08T17:16:36.776Z,12.77
2023-04-08T17:19:07.789Z,12.71
2023-04-08T17:21:36.644Z,12.64
2023-04-08T17:24:05.327Z,12.57
2023-04-08T17:26:34.076Z,12.50
2023-04-08T17:29:03.402Z,12.41
2023-04-08T17:31:33.067Z,12.33
2023-04-08T17:34:01.686Z,12.26
2023-04-08T17:36:31.327Z,12.20
2023-04-08T17:39:00.148Z,12.13
2023-04-08T17:41:39.129Z,12.07
2023-04-08T17:44:08.567Z,12.01
2023-04-08T17:46:37.283Z,11.95
2023-04-08T17:49:05.981Z,11.88
2023-04-08T17:51:34.415Z,11.81
2023-04-08T17:54:03.117Z,11.74
2023-04-08T17:56:33.326Z,11.69
2023-04-08T17:59:01.972Z,11.64
2023-04-08T18:01:30.469Z,11.58
2023-04-08T18:03:59.212Z,11.53
2023-04-08T18:06:28.351Z,11.46
2023-04-08T18:08:57.056Z,11.40
2023-04-08T18:11:28.505Z,11.36
2023-04-08T18:13:56.941Z,11.32
2023-04-08T18:16:25.597Z,11.28
2023-04-08T18:18:54.095Z,11.23
2023-04-08T18:21:22.572Z,11.19
2023-04-08T18:23:51.319Z,11.15
2023-04-08T18:26:20.078Z,11.12
2023-04-08T18:28:48.403Z,11.08
2023-04-08T18:31:16.844Z,11.04
2023-04-08T18:33:45.237Z,11.01
2023-04-08T18:36:14.095Z,10.96
2023-04-08T18:38:44.670Z,10.92
2023-04-08T18:41:13.322Z,10.87
2023-04-08T18:43:41.883Z,10.84
2023-04-08T18:46:10.482Z,10.79
2023-04-08T18:48:38.890Z,10.75
2023-04-08T18:51:08.220Z,10.69
2023-04-08T18:53:36.580Z,10.65
2023-04-08T18:56:05.735Z,10.60
2023-04-08T18:58:34.140Z,10.55
2023-04-08T19:01:08.024Z,10.49
2023-04-08T19:03:36.901Z,10.43
2023-04-08T19:06:11.048Z,10.38
2023-04-08T19:08:39.615Z,10.34
2023-04-08T19:11:07.964Z,10.32
2023-04-08T19:13:36.363Z,10.28
2023-04-08T19:16:05.413Z,10.26
2023-04-08T19:18:33.724Z,10.22
2023-04-08T19:21:02.331Z,10.19
2023-04-08T19:23:32.084Z,10.15
2023-04-08T19:26:06.471Z,10.12
2023-04-08T19:28:35.215Z,10.08
2023-04-08T19:31:04.035Z,10.06
2023-04-08T19:33:32.430Z,10.04
2023-04-08T19:36:00.807Z,10.02
2023-04-08T19:38:29.240Z,10.00
2023-04-08T19:40:57.675Z,9.96
2023-04-08T19:43:26.349Z,9.94
2023-04-08T19:45:55.438Z,9.92
2023-04-08T19:48:25.029Z,9.91
2023-04-08T19:50:53.507Z,9.90
2023-04-08T19:53:21.863Z,9.88
2023-04-08T19:55:50.770Z,9.87
2023-04-08T19:58:19.116Z,9.86
2023-04-08T20:00:47.505Z,9.84
2023-04-08T20:03:16.066Z,9.83
2023-04-08T20:05:46.797Z,9.81
2023-04-08T20:08:15.744Z,9.79
2023-04-08T20:10:45.171Z,9.76
2023-04-08T20:13:14.683Z,9.74
2023-04-08T20:15:45.278Z,9.71
2023-04-08T20:18:15.380Z,9.70
2023-04-08T20:20:43.868Z,9.67
2023-04-08T20:23:12.321Z,9.65
2023-04-08T20:25:41.228Z,9.62
2023-04-08T20:28:09.719Z,9.60
2023-04-08T20:30:38.636Z,9.58
2023-04-08T20:33:07.037Z,9.56
2023-04-08T20:35:35.792Z,9.53
2023-04-08T20:38:05.268Z,9.51
2023-04-08T20:40:33.723Z,9.49
2023-04-08T20:43:02.510Z,9.48
2023-04-08T20:45:30.821Z,9.46
2023-04-08T20:47:59.524Z,9.45
2023-04-08T20:50:28.558Z,9.42
2023-04-08T20:52:56.935Z,9.41
2023-04-08T20:55:25.268Z,9.40
2023-04-08T20:57:53.653Z,9.38
2023-04-08T21:00:22.074Z,9.37
2023-04-08T21:02:51.039Z,9.36
2023-04-08T21:05:19.487Z,9.34
2023-04-08T21:07:47.834Z,9.32
2023-04-08T21:10:17.482Z,9.30
2023-04-08T21:12:46.043Z,9.28
2023-04-08T21:15:14.396Z,9.26
2023-04-08T21:17:42.784Z,9.24
2023-04-08T21:20:12.110Z,9.21
2023-04-08T21:22:40.495Z,9.18
2023-04-08T21:25:09.454Z,9.16
2023-04-08T21:27:37.842Z,9.15
2023-04-08T21:30:07.770Z,9.14
2023-04-08T21:32:36.252Z,9.12
2023-04-08T21:35:05.626Z,9.11
2023-04-08T21:37:34.684Z,9.11
2023-04-08T21:40:04.162Z,9.10
2023-04-08T21:42:33.007Z,9.09
2023-04-08T21:45:01.832Z,9.08
2023-04-08T21:47:30.352Z,9.07
2023-04-08T21:49:58.985Z,9.06
2023-04-08T21:52:27.467Z,9.05
2023-04-08T21:54:56.168Z,9.05
2023-04-08T21:57:24.513Z,9.04
2023-04-08T21:59:52.983Z,9.02
2023-04-08T22:02:22.092Z,9.01
2023-04-08T22:04:50.645Z,9.01
2023-04-08T22:07:19.201Z,8.99
2023-04-08T22:09:47.635Z,8.99
2023-04-08T22:12:16.219Z,8.97
2023-04-08T22:14:44.565Z,8.96
2023-04-08T22:17:12.984Z,8.94
2023-04-08T22:19:41.578Z,8.92
2023-04-08T22:22:10.000Z,8.90
2023-04-08T22:24:38.395Z,8.88
2023-04-08T22:27:07.028Z,8.87
2023-04-08T22:29:35.476Z,8.88
2023-04-08T22:32:03.777Z,8.87
2023-04-08T22:34:32.237Z,8.86
2023-04-08T22:37:00.517Z,8.84
2023-04-08T22:39:28.788Z,8.83
2023-04-08T22:41:57.537Z,8.82
2023-04-08T22:44:25.872Z,8.81
2023-04-08T22:46:54.182Z,8.80
2023-04-08T22:49:22.500Z,8.79
2023-04-08T22:51:50.905Z,8.79
2023-04-08T22:54:19.366Z,8.77
2023-04-08T22:56:47.897Z,8.77
2023-04-08T22:59:16.316Z,8.78
2023-04-08T23:01:45.229Z,8.79
2023-04-08T23:04:13.780Z,8.80
2023-04-08T23:06:42.182Z,8.81
2023-04-08T23:09:10.628Z,8.81
2023-04-08T23:11:38.962Z,8.81
2023-04-08T23:14:07.441Z,8.82
2023-04-08T23:16:35.794Z,8.81
2023-04-08T23:19:04.201Z,8.81
2023-04-08T23:21:32.592Z,8.80
2023-04-08T23:24:00.903Z,8.80
2023-04-08T23:26:29.332Z,8.79
2023-04-08T23:28:57.661Z,8.78
2023-04-08T23:31:26.113Z,8.78
2023-04-08T23:33:54.446Z,8.79
2023-04-08T23:36:23.036Z,8.80
2023-04-08T23:38:51.610Z,8.80
2023-04-08T23:41:20.656Z,8.78
2023-04-08T23:43:49.769Z,8.77
2023-04-08T23:46:18.197Z,8.76
2023-04-08T23:48:46.579Z,8.76
2023-04-08T23:51:15.020Z,8.77
2023-04-08T23:53:43.365Z,8.76
2023-04-08T23:56:11.762Z,8.74
2023-04-08T23:58:40.261Z,8.72
